createdAt,value
2023-01-07T00:00:35.673Z,0.00
2023-01-07T00:01:35.657Z,0.00
2023-01-07T00:02:35.671Z,0.00
2023-01-07T00:03:36.375Z,0.00
2023-01-07T00:04:36.033Z,0.00
2023-01-07T00:05:36.116Z,0.00
2023-01-07T00:06:35.636Z,0.00
2023-01-07T00:07:36.060Z,0.00
2023-01-07T00:08:36.046Z,0.00
2023-01-07T00:09:35.540Z,0.00
2023-01-07T00:10:35.609Z,0.00
2023-01-07T00:11:35.532Z,0.00
2023-01-07T00:12:35.998Z,0.00
2023-01-07T00:13:35.632Z,0.00
2023-01-07T00:14:35.471Z,0.00
2023-01-07T00:15:35.959Z,0.00
2023-01-07T00:16:35.512Z,0.00
2023-01-07T00:17:35.454Z,0.00
2023-01-07T00:18:35.933Z,0.00
2023-01-07T00:19:35.914Z,0.00
2023-01-07T00:20:35.909Z,0.00
2023-01-07T00:21:35.390Z,0.00
2023-01-07T00:22:35.921Z,0.00
2023-01-07T00:23:35.389Z,0.00
2023-01-07T00:24:35.362Z,0.00
2023-01-07T00:25:35.851Z,0.00
2023-01-07T00:26:35.855Z,0.00
2023-01-07T00:27:35.832Z,0.00
2023-01-07T00:28:34.414Z,0.00
2023-01-07T00:29:35.791Z,0.00
2023-01-07T00:30:35.284Z,0.00
2023-01-07T00:31:35.814Z,0.00
2023-01-07T00:32:35.744Z,0.00
2023-01-07T00:33:35.743Z,0.00
2023-01-07T00:34:35.308Z,0.00
2023-01-07T00:35:35.404Z,0.00
2023-01-07T00:36:35.227Z,0.00
2023-01-07T00:37:35.726Z,0.00
2023-01-07T00:38:35.723Z,0.00
2023-01-07T00:39:34.266Z,0.00
2023-01-07T00:40:35.212Z,0.00
2023-01-07T00:41:35.170Z,0.00
2023-01-07T00:42:35.638Z,0.00
2023-01-07T00:43:35.170Z,0.00
2023-01-07T00:44:35.615Z,0.00
2023-01-07T00:45:35.138Z,0.00
2023-01-07T00:46:35.210Z,0.00
2023-01-07T00:47:35.119Z,0.00
2023-01-07T00:48:35.584Z,0.00
2023-01-07T00:49:35.092Z,0.00
2023-01-07T00:50:35.587Z,0.00
2023-01-07T00:51:35.578Z,0.00
2023-01-07T00:52:35.081Z,0.00
2023-01-07T00:53:35.538Z,0.00
2023-01-07T00:54:35.515Z,0.00
2023-01-07T00:55:35.566Z,0.00
2023-01-07T00:56:34.997Z,0.00
2023-01-07T00:57:35.001Z,0.00
2023-01-07T00:58:35.034Z,0.00
2023-01-07T00:59:35.991Z,0.00
2023-01-07T01:00:35.477Z,0.00
2023-01-07T01:01:35.594Z,0.00
2023-01-07T01:02:36.004Z,0.00
2023-01-07T01:03:36.356Z,0.00
2023-01-07T01:04:35.041Z,0.00
2023-01-07T01:05:35.415Z,0.00
2023-01-07T01:06:34.931Z,0.00
2023-01-07T01:07:35.410Z,0.00
2023-01-07T01:08:34.900Z,0.00
2023-01-07T01:09:35.899Z,0.00
2023-01-07T01:10:34.891Z,0.00
2023-01-07T01:11:36.717Z,0.00
2023-01-07T01:12:35.870Z,0.00
2023-01-07T01:13:35.383Z,0.00
2023-01-07T01:14:35.816Z,0.00
2023-01-07T01:15:35.313Z,0.00
2023-01-07T01:16:35.898Z,0.00
2023-01-07T01:17:34.804Z,0.00
2023-01-07T01:18:35.315Z,0.00
2023-01-07T01:19:35.752Z,0.00
2023-01-07T01:20:35.271Z,0.00
2023-01-07T01:21:35.241Z,0.00
2023-01-07T01:22:35.772Z,0.00
2023-01-07T01:23:35.207Z,0.00
2023-01-07T01:24:35.209Z,0.00
2023-01-07T01:25:35.703Z,0.00
2023-01-07T01:26:35.189Z,0.00
2023-01-07T01:27:35.717Z,0.00
2023-01-07T01:28:35.701Z,0.00
2023-01-07T01:29:35.669Z,0.00
2023-01-07T01:30:34.690Z,0.00
2023-01-07T01:31:35.192Z,0.00
2023-01-07T01:32:35.625Z,0.00
2023-01-07T01:33:35.406Z,0.00
2023-01-07T01:34:35.099Z,0.00
2023-01-07T01:35:35.596Z,0.00
2023-01-07T01:36:35.595Z,0.00
2023-01-07T01:37:35.108Z,0.00
2023-01-07T01:38:35.568Z,0.00
2023-01-07T01:39:35.580Z,0.00
2023-01-07T01:40:35.535Z,0.00
2023-01-07T01:41:35.554Z,0.00
2023-01-07T01:42:36.530Z,0.00
2023-01-07T01:43:36.713Z,0.00
2023-01-07T01:44:36.302Z,0.00
2023-01-07T01:45:35.739Z,0.00
2023-01-07T01:46:34.653Z,0.00
2023-01-07T01:47:35.598Z,0.00
2023-01-07T01:48:36.357Z,0.00
2023-01-07T01:49:35.499Z,0.00
2023-01-07T01:50:34.430Z,0.00
2023-01-07T01:51:36.169Z,0.00
2023-01-07T01:52:36.657Z,0.00
2023-01-07T01:53:34.435Z,0.00
2023-01-07T01:54:34.919Z,0.00
2023-01-07T01:55:35.394Z,0.00
2023-01-07T01:56:34.600Z,0.00
2023-01-07T01:57:35.981Z,0.00
2023-01-07T01:58:34.950Z,0.00
2023-01-07T01:59:34.404Z,0.00
2023-01-07T02:00:35.513Z,0.00
2023-01-07T02:01:35.604Z,0.00
2023-01-07T02:02:34.347Z,0.00
2023-01-07T02:03:34.418Z,0.00
2023-01-07T02:04:35.427Z,0.00
2023-01-07T02:05:35.815Z,0.00
2023-01-07T02:06:33.325Z,0.00
2023-01-07T02:07:33.916Z,0.00
2023-01-07T02:08:34.812Z,0.00
2023-01-07T02:09:35.568Z,0.00
2023-01-07T02:10:36.984Z,0.00
2023-01-07T02:11:34.225Z,0.00
2023-01-07T02:12:35.195Z,0.00
2023-01-07T02:13:36.525Z,0.00
2023-01-07T02:14:35.175Z,0.00
2023-01-07T02:15:35.276Z,0.00
2023-01-07T02:16:34.199Z,0.00
2023-01-07T02:17:35.732Z,0.00
2023-01-07T02:18:35.173Z,0.00
2023-01-07T02:19:35.126Z,0.00
2023-01-07T02:20:36.267Z,0.00
2023-01-07T02:21:34.108Z,0.00
2023-01-07T02:22:35.107Z,0.00
2023-01-07T02:23:35.168Z,0.00
2023-01-07T02:24:35.557Z,0.00
2023-01-07T02:25:33.959Z,0.00
2023-01-07T02:26:34.529Z,0.00
2023-01-07T02:27:35.408Z,0.00
2023-01-07T02:28:34.539Z,0.00
2023-01-07T02:29:34.570Z,0.00
2023-01-07T02:30:37.078Z,0.00
2023-01-07T02:31:35.988Z,0.00
2023-01-07T02:32:33.963Z,0.00
2023-01-07T02:33:35.010Z,0.00
2023-01-07T02:34:35.023Z,0.00
2023-01-07T02:35:35.431Z,0.00
2023-01-07T02:36:34.968Z,0.00
2023-01-07T02:37:34.403Z,0.00
2023-01-07T02:38:35.054Z,0.00
2023-01-07T02:39:35.551Z,0.00
2023-01-07T02:40:33.933Z,0.00
2023-01-07T02:41:34.889Z,0.00
2023-01-07T02:42:33.981Z,0.00
2023-01-07T02:43:35.284Z,0.00
2023-01-07T02:44:34.863Z,0.00
2023-01-07T02:45:34.979Z,0.00
2023-01-07T02:46:35.394Z,0.00
2023-01-07T02:47:35.013Z,0.00
2023-01-07T02:48:34.353Z,0.00
2023-01-07T02:49:34.363Z,0.00
2023-01-07T02:50:35.179Z,0.00
2023-01-07T02:51:34.869Z,0.00
2023-01-07T02:52:33.071Z,0.00
2023-01-07T02:53:35.937Z,0.00
2023-01-07T02:54:34.764Z,0.00
2023-01-07T02:55:32.866Z,0.00
2023-01-07T02:56:34.808Z,0.00
2023-01-07T02:57:34.725Z,0.00
2023-01-07T02:58:35.092Z,0.00
2023-01-07T02:59:33.844Z,0.00
2023-01-07T03:00:34.051Z,0.00
2023-01-07T03:01:34.029Z,0.00
2023-01-07T03:02:33.661Z,0.00
2023-01-07T03:03:34.687Z,0.00
2023-01-07T03:04:34.769Z,0.00
2023-01-07T03:05:34.150Z,0.00
2023-01-07T03:06:33.718Z,0.00
2023-01-07T03:07:34.100Z,0.00
2023-01-07T03:08:34.939Z,0.00
2023-01-07T03:09:36.725Z,0.00
2023-01-07T03:10:35.368Z,0.00
2023-01-07T03:11:33.639Z,0.00
2023-01-07T03:12:32.625Z,0.00
2023-01-07T03:13:33.519Z,0.00
2023-01-07T03:14:35.930Z,0.00
2023-01-07T03:15:33.512Z,0.00
2023-01-07T03:16:36.760Z,0.00
2023-01-07T03:17:32.612Z,0.00
2023-01-07T03:18:34.583Z,0.00
2023-01-07T03:19:34.462Z,0.00
2023-01-07T03:20:33.570Z,0.00
2023-01-07T03:21:32.761Z,0.00
2023-01-07T03:22:33.507Z,0.00
2023-01-07T03:23:33.499Z,0.00
2023-01-07T03:24:33.663Z,0.00
2023-01-07T03:25:33.524Z,0.00
2023-01-07T03:26:34.917Z,0.00
2023-01-07T03:27:33.934Z,0.00
2023-01-07T03:28:32.494Z,0.00
2023-01-07T03:29:32.446Z,0.00
2023-01-07T03:30:33.602Z,0.00
2023-01-07T03:31:33.382Z,0.00
2023-01-07T03:32:33.333Z,0.00
2023-01-07T03:33:33.293Z,0.00
2023-01-07T03:34:32.364Z,0.00
2023-01-07T03:35:34.243Z,0.00
2023-01-07T03:36:33.977Z,0.00
2023-01-07T03:37:33.735Z,0.00
2023-01-07T03:38:33.294Z,0.00
2023-01-07T03:39:33.325Z,0.00
2023-01-07T03:40:33.593Z,0.00
2023-01-07T03:41:32.492Z,0.00
2023-01-07T03:42:34.151Z,0.00
2023-01-07T03:43:33.285Z,0.00
2023-01-07T03:44:32.394Z,0.00
2023-01-07T03:45:33.466Z,0.00
2023-01-07T03:46:33.374Z,0.00
2023-01-07T03:47:33.208Z,0.00
2023-01-07T03:48:33.805Z,0.00
2023-01-07T03:49:32.278Z,0.00
2023-01-07T03:50:33.287Z,0.00
2023-01-07T03:51:33.100Z,0.00
2023-01-07T03:52:33.717Z,0.00
2023-01-07T03:53:32.446Z,0.00
2023-01-07T03:54:33.068Z,0.00
2023-01-07T03:55:32.144Z,0.00
2023-01-07T03:56:33.089Z,0.00
2023-01-07T03:57:33.866Z,0.00
2023-01-07T03:58:34.189Z,0.00
2023-01-07T03:59:33.585Z,0.00
2023-01-07T04:00:34.050Z,0.00
2023-01-07T04:01:33.570Z,0.00
2023-01-07T04:02:33.363Z,0.00
2023-01-07T04:03:34.910Z,0.00
2023-01-07T04:04:35.714Z,0.00
2023-01-07T04:05:32.537Z,0.00
2023-01-07T04:06:33.087Z,0.00
2023-01-07T04:07:33.575Z,0.00
2023-01-07T04:08:34.797Z,0.00
2023-01-07T04:09:32.989Z,0.00
2023-01-07T04:10:31.987Z,0.00
2023-01-07T04:11:33.432Z,0.00
2023-01-07T04:12:32.955Z,0.00
2023-01-07T04:13:32.991Z,0.00
2023-01-07T04:14:33.401Z,0.00
2023-01-07T04:15:33.018Z,0.00
2023-01-07T04:16:33.858Z,0.00
2023-01-07T04:17:31.925Z,0.00
2023-01-07T04:18:31.939Z,0.00
2023-01-07T04:19:32.916Z,0.00
2023-01-07T04:20:32.974Z,0.00
2023-01-07T04:21:32.076Z,0.00
2023-01-07T04:22:33.486Z,0.00
2023-01-07T04:23:32.847Z,0.00
2023-01-07T04:24:33.277Z,0.00
2023-01-07T04:25:32.164Z,0.00
2023-01-07T04:26:34.651Z,0.00
2023-01-07T04:27:31.824Z,0.00
2023-01-07T04:28:32.739Z,0.00
2023-01-07T04:29:33.721Z,0.00
2023-01-07T04:30:31.857Z,0.00
2023-01-07T04:31:31.871Z,0.00
2023-01-07T04:32:32.718Z,0.00
2023-01-07T04:33:33.734Z,0.00
2023-01-07T04:34:31.747Z,0.00
2023-01-07T04:35:31.757Z,0.00
2023-01-07T04:36:38.843Z,0.00
2023-01-07T04:37:32.640Z,0.00
2023-01-07T04:38:31.839Z,0.00
2023-01-07T04:39:33.121Z,0.00
2023-01-07T04:40:31.935Z,0.00
2023-01-07T04:41:32.915Z,0.00
2023-01-07T04:42:31.699Z,0.00
2023-01-07T04:43:31.771Z,0.00
2023-01-07T04:44:35.561Z,0.00
2023-01-07T04:45:32.575Z,0.00
2023-01-07T04:46:31.776Z,0.00
2023-01-07T04:47:32.578Z,0.00
2023-01-07T04:48:34.031Z,0.00
2023-01-07T04:49:32.999Z,0.00
2023-01-07T04:50:31.591Z,0.00
2023-01-07T04:51:32.513Z,0.00
2023-01-07T04:52:32.510Z,0.00
2023-01-07T04:53:32.506Z,0.00
2023-01-07T04:54:31.629Z,0.00
2023-01-07T04:55:31.563Z,0.00
2023-01-07T04:56:31.543Z,0.00
2023-01-07T04:57:34.567Z,0.00
2023-01-07T04:58:32.407Z,0.00
2023-01-07T04:59:33.195Z,0.00
2023-01-07T05:00:31.604Z,0.00
2023-01-07T05:01:31.610Z,0.00
2023-01-07T05:02:32.563Z,0.00
2023-01-07T05:03:31.656Z,0.00
2023-01-07T05:04:32.522Z,0.00
2023-01-07T05:05:33.327Z,0.00
2023-01-07T05:06:32.927Z,0.00
2023-01-07T05:07:31.859Z,0.00
2023-01-07T05:08:36.687Z,0.00
2023-01-07T05:09:32.270Z,0.00
2023-01-07T05:10:32.257Z,0.00
2023-01-07T05:11:32.263Z,0.00
2023-01-07T05:12:32.786Z,0.00
2023-01-07T05:13:31.350Z,0.00
2023-01-07T05:14:31.297Z,0.00
2023-01-07T05:15:31.329Z,0.00
2023-01-07T05:16:31.534Z,0.00
2023-01-07T05:17:32.711Z,0.00
2023-01-07T05:18:31.317Z,0.00
2023-01-07T05:19:32.210Z,0.00
2023-01-07T05:20:32.661Z,0.00
2023-01-07T05:21:33.569Z,0.00
2023-01-07T05:22:32.159Z,0.00
2023-01-07T05:23:32.659Z,0.00
2023-01-07T05:24:33.710Z,0.00
2023-01-07T05:25:31.562Z,0.00
2023-01-07T05:26:38.044Z,0.00
2023-01-07T05:27:31.400Z,0.00
2023-01-07T05:28:32.178Z,0.00
2023-01-07T05:29:32.582Z,0.00
2023-01-07T05:30:31.583Z,0.00
2023-01-07T05:31:33.106Z,0.00
2023-01-07T05:32:32.771Z,0.00
2023-01-07T05:33:32.565Z,0.00
2023-01-07T05:34:32.513Z,0.00
2023-01-07T05:35:32.527Z,0.00
2023-01-07T05:36:31.441Z,0.00
2023-01-07T05:37:32.741Z,0.00
2023-01-07T05:38:31.120Z,0.00
2023-01-07T05:39:32.495Z,0.00
2023-01-07T05:40:32.532Z,0.00
2023-01-07T05:41:32.979Z,0.00
2023-01-07T05:42:31.989Z,0.00
2023-01-07T05:43:32.662Z,0.00
2023-01-07T05:44:32.489Z,0.00
2023-01-07T05:45:32.427Z,0.00
2023-01-07T05:46:33.314Z,0.00
2023-01-07T05:47:32.136Z,0.00
2023-01-07T05:48:31.925Z,0.00
2023-01-07T05:49:32.051Z,0.00
2023-01-07T05:50:32.339Z,0.00
2023-01-07T05:51:32.363Z,0.00
2023-01-07T05:52:32.370Z,0.00
2023-01-07T05:53:31.869Z,0.00
2023-01-07T05:54:30.985Z,0.00
2023-01-07T05:55:31.762Z,0.00
2023-01-07T05:56:30.837Z,0.00
2023-01-07T05:57:31.769Z,0.00
2023-01-07T05:58:32.258Z,0.00
2023-01-07T05:59:32.925Z,0.00
2023-01-07T06:00:30.910Z,0.00
2023-01-07T06:01:31.945Z,0.00
2023-01-07T06:02:32.249Z,0.00
2023-01-07T06:03:32.283Z,0.00
2023-01-07T06:04:30.871Z,0.00
2023-01-07T06:05:32.198Z,0.00
2023-01-07T06:06:31.762Z,0.00
2023-01-07T06:07:32.181Z,0.00
2023-01-07T06:08:31.701Z,0.00
2023-01-07T06:09:31.699Z,0.00
2023-01-07T06:10:32.046Z,0.00
2023-01-07T06:11:31.611Z,0.00
2023-01-07T06:12:32.141Z,0.00
2023-01-07T06:13:31.591Z,0.00
2023-01-07T06:14:32.102Z,0.00
2023-01-07T06:15:32.108Z,0.00
2023-01-07T06:16:31.565Z,0.00
2023-01-07T06:17:32.100Z,0.00
2023-01-07T06:18:32.081Z,0.00
2023-01-07T06:19:31.558Z,0.00
2023-01-07T06:20:32.023Z,0.00
2023-01-07T06:21:31.573Z,0.00
2023-01-07T06:22:31.507Z,0.00
2023-01-07T06:23:35.910Z,0.00
2023-01-07T06:24:31.604Z,0.00
2023-01-07T06:25:31.475Z,0.00
2023-01-07T06:26:32.850Z,0.00
2023-01-07T06:27:31.956Z,0.00
2023-01-07T06:28:31.452Z,0.00
2023-01-07T06:29:31.433Z,0.00
2023-01-07T06:30:31.952Z,0.00
2023-01-07T06:31:31.502Z,0.00
2023-01-07T06:32:31.921Z,0.00
2023-01-07T06:33:33.387Z,0.00
2023-01-07T06:34:31.346Z,0.00
2023-01-07T06:35:31.836Z,0.00
2023-01-07T06:36:31.901Z,0.00
2023-01-07T06:37:31.847Z,0.00
2023-01-07T06:38:32.526Z,0.00
2023-01-07T06:39:31.815Z,0.00
2023-01-07T06:40:31.295Z,0.00
2023-01-07T06:41:31.790Z,0.00
2023-01-07T06:42:31.877Z,0.00
2023-01-07T06:43:31.749Z,0.00
2023-01-07T06:44:31.736Z,0.00
2023-01-07T06:45:31.739Z,0.00
2023-01-07T06:46:31.754Z,0.00
2023-01-07T06:47:30.411Z,0.00
2023-01-07T06:48:31.778Z,0.00
2023-01-07T06:49:31.711Z,0.00
2023-01-07T06:50:31.213Z,0.00
2023-01-07T06:51:31.711Z,0.00
2023-01-07T06:52:30.273Z,0.00
2023-01-07T06:53:31.689Z,0.00
2023-01-07T06:54:31.700Z,0.00
2023-01-07T06:55:31.138Z,0.00
2023-01-07T06:56:31.620Z,0.00
2023-01-07T06:57:31.120Z,0.00
2023-01-07T06:58:31.611Z,0.00
2023-01-07T06:59:31.593Z,0.00
2023-01-07T07:00:31.593Z,0.00
2023-01-07T07:01:31.212Z,0.00
2023-01-07T07:02:31.691Z,0.00
2023-01-07T07:03:31.101Z,0.00
2023-01-07T07:04:31.078Z,0.00
2023-01-07T07:05:31.521Z,0.00
2023-01-07T07:06:31.586Z,0.00
2023-01-07T07:07:31.520Z,0.00
2023-01-07T07:08:31.508Z,0.00
2023-01-07T07:09:31.483Z,0.00
2023-01-07T07:10:31.470Z,0.00
2023-01-07T07:11:31.469Z,0.00
2023-01-07T07:12:31.063Z,0.00
2023-01-07T07:13:31.185Z,0.00
2023-01-07T07:14:30.945Z,0.00
2023-01-07T07:15:31.414Z,0.00
2023-01-07T07:16:32.802Z,0.00
2023-01-07T07:17:30.934Z,0.00
2023-01-07T07:18:30.935Z,0.00
2023-01-07T07:19:31.383Z,0.00
2023-01-07T07:20:31.367Z,0.00
2023-01-07T07:21:29.989Z,0.00
2023-01-07T07:22:30.845Z,0.00
2023-01-07T07:23:31.365Z,0.00
2023-01-07T07:24:30.925Z,0.00
2023-01-07T07:25:31.325Z,0.00
2023-01-07T07:26:30.828Z,0.00
2023-01-07T07:27:30.802Z,0.00
2023-01-07T07:28:29.880Z,0.00
2023-01-07T07:29:30.778Z,0.00
2023-01-07T07:30:46.880Z,0.00
2023-01-07T07:31:32.284Z,0.00
2023-01-07T07:32:30.417Z,0.00
2023-01-07T07:33:31.231Z,0.00
2023-01-07T07:34:30.720Z,0.00
2023-01-07T07:35:30.700Z,5.62
2023-01-07T07:36:30.730Z,5.62
2023-01-07T07:37:30.711Z,5.62
2023-01-07T07:38:31.167Z,5.62
2023-01-07T07:39:30.659Z,5.62
2023-01-07T07:40:30.659Z,5.62
2023-01-07T07:41:31.142Z,5.62
2023-01-07T07:42:31.253Z,5.62
2023-01-07T07:43:31.111Z,11.25
2023-01-07T07:44:30.631Z,11.25
2023-01-07T07:45:30.639Z,11.25
2023-01-07T07:46:31.181Z,11.25
2023-01-07T07:47:31.083Z,11.25
2023-01-07T07:48:31.080Z,16.88
2023-01-07T07:49:31.040Z,16.88
2023-01-07T07:50:31.040Z,16.88
2023-01-07T07:51:31.039Z,16.88
2023-01-07T07:52:29.630Z,22.50
2023-01-07T07:53:30.503Z,22.50
2023-01-07T07:54:31.136Z,22.50
2023-01-07T07:55:30.985Z,22.50
2023-01-07T07:56:30.526Z,22.50
2023-01-07T07:57:31.377Z,22.50
2023-01-07T07:58:29.546Z,28.12
2023-01-07T07:59:30.956Z,28.12
2023-01-07T08:00:30.964Z,28.12
2023-01-07T08:01:30.506Z,28.12
2023-01-07T08:02:30.976Z,28.12
2023-01-07T08:03:29.590Z,28.12
2023-01-07T08:04:30.898Z,28.12
2023-01-07T08:05:31.364Z,28.12
2023-01-07T08:06:30.446Z,33.75
2023-01-07T08:07:33.113Z,33.75
2023-01-07T08:08:29.456Z,33.75
2023-01-07T08:09:30.355Z,39.38
2023-01-07T08:10:30.360Z,39.38
2023-01-07T08:11:30.850Z,39.38
2023-01-07T08:12:30.835Z,45.00
2023-01-07T08:13:30.315Z,45.00
2023-01-07T08:14:30.806Z,50.62
2023-01-07T08:15:30.790Z,50.62
2023-01-07T08:16:30.873Z,50.62
2023-01-07T08:17:30.772Z,50.62
2023-01-07T08:18:30.781Z,50.62
2023-01-07T08:19:30.245Z,50.62
2023-01-07T08:20:30.252Z,50.62
2023-01-07T08:21:30.697Z,45.00
2023-01-07T08:22:30.724Z,39.38
2023-01-07T08:23:30.677Z,39.38
2023-01-07T08:24:30.781Z,39.38
2023-01-07T08:25:30.190Z,33.75
2023-01-07T08:26:29.846Z,33.75
2023-01-07T08:27:31.152Z,39.38
2023-01-07T08:28:30.189Z,39.38
2023-01-07T08:29:30.158Z,39.38
2023-01-07T08:30:30.659Z,39.38
2023-01-07T08:31:30.613Z,39.38
2023-01-07T08:32:30.121Z,39.38
2023-01-07T08:33:30.111Z,39.38
2023-01-07T08:34:30.116Z,39.38
2023-01-07T08:35:30.089Z,39.38
2023-01-07T08:36:30.623Z,39.38
2023-01-07T08:37:30.071Z,39.38
2023-01-07T08:38:30.551Z,39.38
2023-01-07T08:39:30.553Z,39.38
2023-01-07T08:40:30.044Z,45.00
2023-01-07T08:41:30.535Z,45.00
2023-01-07T08:42:30.533Z,45.00
2023-01-07T08:43:30.496Z,45.00
2023-01-07T08:44:30.490Z,45.00
2023-01-07T08:45:30.473Z,50.62
2023-01-07T08:46:30.237Z,50.62
2023-01-07T08:47:29.943Z,50.62
2023-01-07T08:48:29.984Z,50.62
2023-01-07T08:49:30.447Z,50.62
2023-01-07T08:50:30.457Z,50.62
2023-01-07T08:51:30.393Z,50.62
2023-01-07T08:52:30.413Z,50.62
2023-01-07T08:53:28.947Z,50.62
2023-01-07T08:54:30.424Z,56.25
2023-01-07T08:55:30.353Z,56.25
2023-01-07T08:56:30.354Z,50.62
2023-01-07T08:57:30.334Z,50.62
2023-01-07T08:58:28.934Z,50.62
2023-01-07T08:59:30.379Z,56.25
2023-01-07T09:00:30.513Z,50.62
2023-01-07T09:01:28.976Z,50.62
2023-01-07T09:02:30.346Z,45.00
2023-01-07T09:03:30.278Z,45.00
2023-01-07T09:04:30.277Z,39.38
2023-01-07T09:05:30.248Z,39.38
2023-01-07T09:06:29.868Z,39.38
2023-01-07T09:07:30.227Z,39.38
2023-01-07T09:08:30.237Z,39.38
2023-01-07T09:09:30.929Z,39.38
2023-01-07T09:10:30.209Z,39.38
2023-01-07T09:11:30.188Z,39.38
2023-01-07T09:12:29.780Z,45.00
2023-01-07T09:13:30.165Z,45.00
2023-01-07T09:14:29.688Z,39.38
2023-01-07T09:15:29.670Z,39.38
2023-01-07T09:16:29.238Z,39.38
2023-01-07T09:17:28.684Z,39.38
2023-01-07T09:18:28.792Z,39.38
2023-01-07T09:19:29.602Z,39.38
2023-01-07T09:20:30.107Z,39.38
2023-01-07T09:21:30.086Z,39.38
2023-01-07T09:22:30.071Z,39.38
2023-01-07T09:23:28.611Z,39.38
2023-01-07T09:24:30.152Z,39.38
2023-01-07T09:25:30.045Z,39.38
2023-01-07T09:26:29.522Z,39.38
2023-01-07T09:27:29.526Z,33.75
2023-01-07T09:28:29.502Z,33.75
2023-01-07T09:29:29.491Z,33.75
2023-01-07T09:30:29.495Z,39.38
2023-01-07T09:31:28.983Z,39.38
2023-01-07T09:32:29.948Z,39.38
2023-01-07T09:33:29.957Z,39.38
2023-01-07T09:34:29.523Z,39.38
2023-01-07T09:35:29.471Z,39.38
2023-01-07T09:36:29.954Z,39.38
2023-01-07T09:37:29.916Z,45.00
2023-01-07T09:38:29.453Z,45.00
2023-01-07T09:39:29.875Z,50.62
2023-01-07T09:40:29.363Z,50.62
2023-01-07T09:41:28.757Z,50.62
2023-01-07T09:42:29.892Z,45.00
2023-01-07T09:44:00.387Z,45.00
2023-01-07T09:44:30.347Z,39.38
2023-01-07T09:45:29.896Z,39.38
2023-01-07T09:46:29.819Z,39.38
2023-01-07T09:47:29.298Z,39.38
2023-01-07T09:48:31.829Z,39.38
2023-01-07T09:49:29.246Z,39.38
2023-01-07T09:50:29.272Z,39.38
2023-01-07T09:51:29.249Z,39.38
2023-01-07T09:52:29.466Z,39.38
2023-01-07T09:53:29.727Z,39.38
2023-01-07T09:54:29.807Z,39.38
2023-01-07T09:55:29.710Z,39.38
2023-01-07T09:56:29.670Z,39.38
2023-01-07T09:57:29.690Z,39.38
2023-01-07T09:58:29.150Z,39.38
2023-01-07T09:59:29.158Z,39.38
2023-01-07T10:00:29.673Z,45.00
2023-01-07T10:01:29.708Z,45.00
2023-01-07T10:02:29.420Z,50.62
2023-01-07T10:03:29.091Z,56.25
2023-01-07T10:04:29.089Z,61.88
2023-01-07T10:05:29.580Z,73.12
2023-01-07T10:06:42.686Z,73.12
2023-01-07T10:07:30.569Z,78.75
2023-01-07T10:08:32.084Z,78.75
2023-01-07T10:09:29.544Z,84.38
2023-01-07T10:10:29.511Z,84.38
2023-01-07T10:11:29.501Z,90.00
2023-01-07T10:12:29.033Z,84.38
2023-01-07T10:13:29.031Z,84.38
2023-01-07T10:14:29.482Z,90.00
2023-01-07T10:15:28.962Z,90.00
2023-01-07T10:16:29.034Z,90.00
2023-01-07T10:17:29.466Z,95.62
2023-01-07T10:18:28.062Z,95.62
2023-01-07T10:19:29.414Z,95.62
2023-01-07T10:20:29.418Z,90.00
2023-01-07T10:21:29.407Z,90.00
2023-01-07T10:22:29.442Z,84.38
2023-01-07T10:23:28.900Z,84.38
2023-01-07T10:24:29.424Z,84.38
2023-01-07T10:25:29.379Z,84.38
2023-01-07T10:26:28.894Z,84.38
2023-01-07T10:27:28.844Z,84.38
2023-01-07T10:28:28.856Z,84.38
2023-01-07T10:29:28.829Z,84.38
2023-01-07T10:30:29.874Z,90.00
2023-01-07T10:31:27.906Z,90.00
2023-01-07T10:32:27.867Z,84.38
2023-01-07T10:33:27.866Z,73.12
2023-01-07T10:34:29.265Z,61.88
2023-01-07T10:35:29.249Z,56.25
2023-01-07T10:36:29.266Z,56.25
2023-01-07T10:37:29.241Z,56.25
2023-01-07T10:38:29.255Z,56.25
2023-01-07T10:39:29.218Z,50.62
2023-01-07T10:40:28.408Z,50.62
2023-01-07T10:41:28.698Z,56.25
2023-01-07T10:42:27.890Z,50.62
2023-01-07T10:43:28.669Z,45.00
2023-01-07T10:44:29.168Z,45.00
2023-01-07T10:45:29.213Z,45.00
2023-01-07T10:46:29.154Z,39.38
2023-01-07T10:47:29.641Z,45.00
2023-01-07T10:48:29.180Z,45.00
2023-01-07T10:49:29.113Z,45.00
2023-01-07T10:50:29.400Z,45.00
2023-01-07T10:51:29.600Z,45.00
2023-01-07T10:52:29.095Z,45.00
2023-01-07T10:53:29.167Z,45.00
2023-01-07T10:54:28.564Z,45.00
2023-01-07T10:55:29.560Z,50.62
2023-01-07T10:56:28.566Z,50.62
2023-01-07T10:57:29.542Z,50.62
2023-01-07T10:58:29.053Z,50.62
2023-01-07T10:59:29.535Z,50.62
2023-01-07T11:00:29.512Z,50.62
2023-01-07T11:01:29.181Z,50.62
2023-01-07T11:02:29.709Z,50.62
2023-01-07T11:03:29.476Z,50.62
2023-01-07T11:04:29.515Z,50.62
2023-01-07T11:05:29.454Z,50.62
2023-01-07T11:06:29.447Z,56.25
2023-01-07T11:07:29.437Z,56.25
2023-01-07T11:08:29.433Z,61.88
2023-01-07T11:09:28.935Z,67.50
2023-01-07T11:10:29.433Z,67.50
2023-01-07T11:11:29.384Z,73.12
2023-01-07T11:12:29.389Z,78.75
2023-01-07T11:13:29.409Z,78.75
2023-01-07T11:14:29.371Z,84.38
2023-01-07T11:15:29.343Z,90.00
2023-01-07T11:16:29.424Z,90.00
2023-01-07T11:17:29.328Z,90.00
2023-01-07T11:18:29.317Z,95.62
2023-01-07T11:19:28.838Z,101.25
2023-01-07T11:20:30.313Z,95.62
2023-01-07T11:21:43.190Z,95.62
2023-01-07T11:22:29.101Z,101.25
2023-01-07T11:23:29.777Z,95.62
2023-01-07T11:24:28.748Z,95.62
2023-01-07T11:25:29.263Z,95.62
2023-01-07T11:26:28.740Z,95.62
2023-01-07T11:27:28.266Z,101.25
2023-01-07T11:28:29.260Z,106.88
2023-01-07T11:29:29.226Z,101.25
2023-01-07T11:30:29.189Z,101.25
2023-01-07T11:31:29.248Z,101.25
2023-01-07T11:32:28.166Z,101.25
2023-01-07T11:34:01.835Z,106.88
2023-01-07T11:34:29.751Z,106.88
2023-01-07T11:35:27.716Z,101.25
2023-01-07T11:36:27.324Z,101.25
2023-01-07T11:37:29.183Z,101.25
2023-01-07T11:38:29.073Z,106.88
2023-01-07T11:39:28.581Z,106.88
2023-01-07T11:40:28.263Z,106.88
2023-01-07T11:41:28.401Z,112.50
2023-01-07T11:42:27.423Z,118.12
2023-01-07T11:43:29.187Z,118.12
2023-01-07T11:44:27.174Z,123.75
2023-01-07T11:45:29.610Z,123.75
2023-01-07T11:46:29.277Z,123.75
2023-01-07T11:47:27.996Z,123.75
2023-01-07T11:48:28.000Z,123.75
2023-01-07T11:49:27.933Z,123.75
2023-01-07T11:50:28.974Z,123.75
2023-01-07T11:51:27.945Z,123.75
2023-01-07T11:52:27.982Z,123.75
2023-01-07T11:53:28.926Z,118.12
2023-01-07T11:54:27.942Z,118.12
2023-01-07T11:55:27.816Z,118.12
2023-01-07T11:56:28.886Z,118.12
2023-01-07T11:57:28.883Z,118.12
2023-01-07T11:58:31.008Z,118.12
2023-01-07T11:59:28.373Z,123.75
2023-01-07T12:00:27.818Z,123.75
2023-01-07T12:01:27.931Z,129.38
2023-01-07T12:02:26.974Z,129.38
2023-01-07T12:03:28.412Z,135.00
2023-01-07T12:04:26.901Z,140.62
2023-01-07T12:05:28.983Z,140.62
2023-01-07T12:06:28.888Z,135.00
2023-01-07T12:07:28.768Z,140.62
2023-01-07T12:08:28.259Z,140.62
2023-01-07T12:09:28.758Z,140.62
2023-01-07T12:10:27.781Z,140.62
2023-01-07T12:11:26.803Z,146.25
2023-01-07T12:12:27.755Z,146.25
2023-01-07T12:13:29.192Z,146.25
2023-01-07T12:14:29.392Z,146.25
2023-01-07T12:15:29.080Z,146.25
2023-01-07T12:16:28.801Z,146.25
2023-01-07T12:17:27.680Z,146.25
2023-01-07T12:18:28.647Z,146.25
2023-01-07T12:19:28.631Z,140.62
2023-01-07T12:20:28.623Z,140.62
2023-01-07T12:21:29.129Z,146.25
2023-01-07T12:22:28.636Z,146.25
2023-01-07T12:23:26.665Z,146.25
2023-01-07T12:24:28.086Z,146.25
2023-01-07T12:25:28.095Z,140.62
2023-01-07T12:26:28.065Z,140.62
2023-01-07T12:27:28.571Z,135.00
2023-01-07T12:28:27.652Z,135.00
2023-01-07T12:29:28.112Z,135.00
2023-01-07T12:30:27.800Z,135.00
2023-01-07T12:31:29.215Z,135.00
2023-01-07T12:32:27.578Z,140.62
2023-01-07T12:33:28.523Z,135.00
2023-01-07T12:34:27.610Z,135.00
2023-01-07T12:35:27.573Z,135.00
2023-01-07T12:36:27.476Z,135.00
2023-01-07T12:37:28.453Z,129.38
2023-01-07T12:38:28.429Z,129.38
2023-01-07T12:39:27.429Z,129.38
2023-01-07T12:40:27.539Z,129.38
2023-01-07T12:41:27.883Z,129.38
2023-01-07T12:42:27.877Z,129.38
2023-01-07T12:43:27.867Z,129.38
2023-01-07T12:44:27.857Z,129.38
2023-01-07T12:45:27.354Z,129.38
2023-01-07T12:46:28.424Z,129.38
2023-01-07T12:47:30.866Z,129.38
2023-01-07T12:48:29.526Z,135.00
2023-01-07T12:49:27.899Z,129.38
2023-01-07T12:50:27.379Z,129.38
2023-01-07T12:51:27.528Z,129.38
2023-01-07T12:52:28.400Z,129.38
2023-01-07T12:53:29.808Z,129.38
2023-01-07T12:54:27.448Z,129.38
2023-01-07T12:55:27.230Z,129.38
2023-01-07T12:56:27.252Z,129.38
2023-01-07T12:57:26.393Z,135.00
2023-01-07T12:58:27.241Z,135.00
2023-01-07T12:59:45.909Z,135.00
2023-01-07T13:00:29.175Z,135.00
2023-01-07T13:01:28.379Z,140.62
2023-01-07T13:02:26.305Z,140.62
2023-01-07T13:03:26.223Z,146.25
2023-01-07T13:04:26.259Z,140.62